Time;durP1;ratioP1;P1;durP2;ratioP2;P2;SDS_P1;SDS_P2;PMS_P1;PMS_P2;Temp;Humidity;BMP_temperature;BMP_pressure;BME280_temperature;BME280_humidity;BME280_pressure;Samples;Min_cycle;Max_cycle;Signal;HPM_P1;HPM_P2
2023/07/17 00:00:06;;;;;;;5.10;1.60;;;;;;;14.03;65.12;99835.09;5024890;28;20100;-47
2023/07/17 00:02:34;;;;;;;4.35;1.90;;;;;;;14.00;64.90;99840.34;5025691;28;20184;-44
2023/07/17 00:05:01;;;;;;;5.32;2.00;;;;;;;13.96;65.55;99841.28;5022346;28;20045;-45
2023/07/17 00:07:27;;;;;;;5.10;1.48;;;;;;;13.93;65.33;99851.75;5026055;28;20042;-44
2023/07/17 00:09:54;;;;;;;8.82;2.92;;;;;;;13.90;65.63;99846.63;5025908;28;20441;-44
2023/07/17 00:12:21;;;;;;;5.10;1.88;;;;;;;13.83;65.73;99846.75;5026679;28;20106;-43
2023/07/17 00:14:47;;;;;;;10.13;2.28;;;;;;;13.80;65.79;99846.81;5022186;28;20081;-47
2023/07/17 00:17:15;;;;;;;7.38;1.73;;;;;;;13.76;65.96;99845.16;5025229;28;20091;-44
2023/07/17 00:19:53;;;;;;;5.97;2.08;;;;;;;13.71;66.64;99849.59;5024875;28;20527;-46
2023/07/17 00:22:19;;;;;;;6.10;1.38;;;;;;;13.71;65.84;99853.03;5022521;28;20432;-45
2023/07/17 00:24:46;;;;;;;4.07;1.98;;;;;;;13.68;65.96;99841.84;5025667;28;20054;-44
2023/07/17 00:27:13;;;;;;;8.15;1.60;;;;;;;13.66;65.57;99851.41;5025336;28;20045;-42
2023/07/17 00:29:40;;;;;;;5.65;2.67;;;;;;;13.61;66.21;99847.16;5025253;28;20060;-43
2023/07/17 00:32:07;;;;;;;8.55;2.70;;;;;;;13.58;65.65;99843.75;5024199;28;20111;-44
2023/07/17 00:34:34;;;;;;;8.68;3.00;;;;;;;13.56;65.93;99840.31;5025095;28;20046;-49
2023/07/17 00:37:01;;;;;;;9.77;1.65;;;;;;;13.52;66.18;99852.53;5024567;28;20056;-44
2023/07/17 00:39:28;;;;;;;5.25;1.75;;;;;;;13.49;66.74;99847.38;5025180;28;20111;-44
2023/07/17 00:41:57;;;;;;;4.78;2.28;;;;;;;13.47;66.33;99838.69;5027469;28;20100;-44
2023/07/17 00:44:24;;;;;;;3.88;1.60;;;;;;;13.45;66.52;99848.28;5054700;28;20055;-43
2023/07/17 00:46:52;;;;;;;5.07;1.95;;;;;;;13.43;66.60;99852.66;5028708;28;20045;-45
2023/07/17 00:49:22;;;;;;;7.65;1.50;;;;;;;13.40;66.48;99848.38;5023528;28;20096;-42
2023/07/17 00:51:49;;;;;;;4.80;1.88;;;;;;;13.37;66.99;99854.47;5027351;28;20049;-44
2023/07/17 00:54:18;;;;;;;5.88;2.13;;;;;;;13.39;66.70;99861.41;5028915;28;20057;-44
2023/07/17 00:56:46;;;;;;;8.70;2.20;;;;;;;13.34;66.41;99848.50;5028630;28;20048;-45
2023/07/17 00:59:14;;;;;;;9.02;2.05;;;;;;;13.33;66.60;99857.16;5028794;28;20044;-44
2023/07/17 01:01:42;;;;;;;9.70;2.88;;;;;;;13.33;66.78;99857.16;5028308;28;20744;-45
2023/07/17 01:04:09;;;;;;;6.78;2.00;;;;;;;13.32;67.64;99860.66;5027280;28;20045;-46
2023/07/17 01:06:38;;;;;;;4.90;2.03;;;;;;;13.31;67.01;99859.78;5028796;28;20698;-47
2023/07/17 01:09:07;;;;;;;7.50;1.67;;;;;;;13.30;67.85;99852.00;5028718;28;20103;-46
2023/07/17 01:11:34;;;;;;;6.95;2.55;;;;;;;13.27;67.89;99858.13;5028377;28;20106;-45
2023/07/17 01:14:01;;;;;;;7.55;2.53;;;;;;;13.26;67.91;99865.94;5025079;28;20466;-47
2023/07/17 01:16:27;;;;;;;5.68;1.50;;;;;;;13.22;67.42;99862.56;5023835;28;20068;-43
2023/07/17 01:18:54;;;;;;;10.13;2.30;;;;;;;13.23;67.65;99872.06;5027241;28;20132;-46
2023/07/17 01:21:26;;;;;;;4.72;1.75;;;;;;;13.21;67.17;99861.69;5023109;28;20041;-46
2023/07/17 01:23:54;;;;;;;4.05;1.45;;;;;;;13.18;67.73;99868.69;5028410;28;20200;-45
2023/07/17 01:26:21;;;;;;;5.63;1.58;;;;;;;13.19;67.86;99873.00;5012234;28;20065;-45
2023/07/17 01:28:48;;;;;;;7.03;1.88;;;;;;;13.18;67.71;99879.09;5008494;28;20052;-48
2023/07/17 01:31:15;;;;;;;5.88;2.40;;;;;;;13.15;68.22;99884.34;5014248;28;20416;-49
2023/07/17 01:33:42;;;;;;;6.65;2.00;;;;;;;13.12;68.35;99880.03;5027204;28;20137;-44
2023/07/17 01:36:09;;;;;;;8.25;2.20;;;;;;;13.11;68.23;99881.78;5024911;28;20145;-46
2023/07/17 01:38:35;;;;;;;11.57;3.53;;;;;;;13.10;67.53;99882.66;5027612;28;20046;-45
2023/07/17 01:41:02;;;;;;;5.70;2.00;;;;;;;13.09;67.95;99888.75;5028052;28;20240;-43
2023/07/17 01:43:29;;;;;;;4.38;1.80;;;;;;;13.07;68.55;99898.31;5027848;28;20133;-44
2023/07/17 01:45:56;;;;;;;4.00;1.40;;;;;;;13.07;67.79;99903.50;5025241;28;20042;-45
2023/07/17 01:48:23;;;;;;;6.28;1.77;;;;;;;13.05;67.64;99897.50;5019745;28;20436;-43
2023/07/17 01:50:49;;;;;;;6.90;1.80;;;;;;;13.03;68.10;99909.66;5027201;28;20092;-44
2023/07/17 01:53:18;;;;;;;7.72;2.05;;;;;;;13.02;67.83;99905.34;5027735;28;20045;-42
2023/07/17 01:55:46;;;;;;;5.90;1.70;;;;;;;13.01;68.17;99908.81;5027576;28;20041;-45
2023/07/17 01:58:13;;;;;;;5.60;2.22;;;;;;;12.99;67.96;99915.78;5029956;28;20072;-46
2023/07/17 02:00:40;;;;;;;6.40;2.00;;;;;;;12.96;69.46;99910.63;5028113;28;20092;-42
2023/07/17 02:03:07;;;;;;;4.70;1.63;;;;;;;12.95;68.64;99908.91;5024785;28;20482;-46
2023/07/17 02:05:33;;;;;;;6.10;1.92;;;;;;;12.93;68.88;99905.44;5028079;28;20056;-44
2023/07/17 02:08:00;;;;;;;7.22;2.05;;;;;;;12.92;69.34;99908.94;5028191;28;20053;-45
2023/07/17 02:10:27;;;;;;;5.15;1.58;;;;;;;12.91;69.00;99912.44;5026771;28;20060;-44
2023/07/17 02:12:54;;;;;;;4.03;1.67;;;;;;;12.89;68.44;99915.06;5026994;28;20075;-49
2023/07/17 02:15:21;;;;;;;6.28;2.25;;;;;;;12.88;69.31;99915.94;5027665;28;20053;-46
2023/07/17 02:17:48;;;;;;;6.82;2.00;;;;;;;12.87;69.26;99905.56;5025488;28;20049;-46
2023/07/17 02:20:15;;;;;;;4.88;1.83;;;;;;;12.84;69.38;99904.72;5025910;28;20073;-48
2023/07/17 02:22:42;;;;;;;5.57;1.73;;;;;;;12.83;68.21;99905.59;5026980;28;20544;-46
2023/07/17 02:25:10;;;;;;;3.47;1.45;;;;;;;12.80;68.53;99905.63;5026522;28;20071;-45
2023/07/17 02:27:36;;;;;;;6.55;2.05;;;;;;;12.80;68.69;99902.19;5027106;28;20053;-44
2023/07/17 02:30:04;;;;;;;7.22;1.85;;;;;;;12.80;69.03;99908.25;5027327;28;20513;-44
2023/07/17 02:32:31;;;;;;;7.93;1.50;;;;;;;12.79;68.42;99903.94;5025911;28;20104;-45
2023/07/17 02:34:58;;;;;;;5.28;1.50;;;;;;;12.78;69.78;99906.53;5026783;28;20084;-42
2023/07/17 02:37:25;;;;;;;6.45;1.67;;;;;;;12.79;68.99;99903.94;5025387;28;20734;-42
2023/07/17 02:39:52;;;;;;;6.80;1.60;;;;;;;12.78;69.36;99907.41;5021200;28;20049;-45
2023/07/17 02:42:19;;;;;;;5.35;1.65;;;;;;;12.77;68.74;99905.66;5023682;28;20051;-43
2023/07/17 02:44:48;;;;;;;5.57;1.85;;;;;;;12.78;69.11;99912.63;5025317;28;20050;-46
2023/07/17 02:47:15;;;;;;;4.30;1.52;;;;;;;12.77;69.56;99918.66;5025037;28;20049;-46
2023/07/17 02:49:42;;;;;;;6.05;2.03;;;;;;;12.78;69.35;99916.94;5022431;28;20053;-45
2023/07/17 02:52:09;;;;;;;5.63;1.75;;;;;;;12.77;69.64;99926.47;5026648;28;20140;-43
2023/07/17 02:54:37;;;;;;;5.30;1.50;;;;;;;12.76;69.06;99914.34;5030182;28;20473;-45
2023/07/17 02:57:05;;;;;;;5.60;1.77;;;;;;;12.75;69.32;99917.84;5019573;28;20053;-42
2023/07/17 02:59:32;;;;;;;3.97;1.50;;;;;;;12.74;69.98;99916.13;5026459;28;20045;-45
2023/07/17 03:01:59;;;;;;;5.10;1.70;;;;;;;12.72;69.75;99912.69;5025792;28;20053;-44
2023/07/17 03:04:26;;;;;;;7.05;1.27;;;;;;;12.69;69.86;99913.59;5024771;28;20046;-45
2023/07/17 03:06:53;;;;;;;4.70;1.73;;;;;;;12.69;69.97;99915.31;5026045;28;20053;-44
2023/07/17 03:09:20;;;;;;;8.35;2.15;;;;;;;12.67;69.30;99915.34;5026292;28;20077;-46
2023/07/17 03:11:47;;;;;;;6.38;1.90;;;;;;;12.67;69.29;99922.28;5023726;28;20057;-45
2023/07/17 03:14:14;;;;;;;4.25;1.30;;;;;;;12.66;69.03;99918.00;5024454;28;20049;-46
2023/07/17 03:16:41;;;;;;;5.82;2.10;;;;;;;12.63;69.33;99918.84;5025908;28;20460;-43
2023/07/17 03:19:08;;;;;;;4.72;1.77;;;;;;;12.63;69.79;99928.41;5024818;28;20136;-44
2023/07/17 03:21:35;;;;;;;5.38;1.27;;;;;;;12.61;69.12;99931.03;5026515;28;20088;-46
2023/07/17 03:24:04;;;;;;;7.85;2.65;;;;;;;12.59;70.06;99930.19;5022742;28;20367;-42
2023/07/17 03:26:31;;;;;;;4.32;1.23;;;;;;;12.58;70.31;99934.53;5025136;28;20041;-48
2023/07/17 03:28:58;;;;;;;6.60;1.60;;;;;;;12.57;69.48;99935.38;5023970;28;20053;-45
2023/07/17 03:31:24;;;;;;;6.57;1.50;;;;;;;12.55;69.95;99931.97;5025012;28;20124;-53
2023/07/17 03:33:52;;;;;;;5.40;1.20;;;;;;;12.53;69.66;99928.50;5022343;28;20050;-43
2023/07/17 03:36:18;;;;;;;6.85;2.45;;;;;;;12.52;69.96;99929.41;5026592;28;20541;-43
2023/07/17 03:38:45;;;;;;;4.07;1.45;;;;;;;12.51;70.33;99925.09;5023418;28;20046;-41
2023/07/17 03:41:12;;;;;;;4.55;2.22;;;;;;;12.50;69.65;99925.94;5025663;28;20691;-45
2023/07/17 03:43:38;;;;;;;5.15;1.50;;;;;;;12.51;70.24;99930.28;5025922;28;20050;-48
2023/07/17 03:46:05;;;;;;;5.25;1.42;;;;;;;12.50;69.82;99925.94;5025244;28;20064;-46
2023/07/17 03:48:32;;;;;;;5.13;2.00;;;;;;;12.51;69.60;99929.41;5025094;28;20482;-43
2023/07/17 03:50:58;;;;;;;7.75;1.60;;;;;;;12.52;71.14;99931.13;5027940;28;20057;-45
2023/07/17 03:53:29;;;;;;;4.72;1.48;;;;;;;12.52;70.33;99934.59;5026010;28;20380;-47
2023/07/17 03:55:55;;;;;;;6.47;1.60;;;;;;;12.52;70.52;99932.00;5025872;28;20048;-44
2023/07/17 03:58:22;;;;;;;10.30;1.42;;;;;;;12.54;71.11;99934.59;5025499;28;21299;-42
2023/07/17 04:00:49;;;;;;;6.45;2.03;;;;;;;12.55;70.33;99934.56;5025755;28;20049;-42
2023/07/17 04:03:16;;;;;;;4.57;1.42;;;;;;;12.55;70.49;99937.16;5019751;28;20045;-43
2023/07/17 04:05:44;;;;;;;9.68;1.92;;;;;;;12.56;70.95;99938.88;5023313;28;20107;-43
2023/07/17 04:08:11;;;;;;;5.88;1.65;;;;;;;12.56;70.98;99933.69;5024152;28;20517;-42
2023/07/17 04:10:37;;;;;;;6.60;2.60;;;;;;;12.58;71.45;99937.13;5025238;28;20464;-42
2023/07/17 04:13:04;;;;;;;7.10;1.90;;;;;;;12.60;70.71;99943.16;5025337;28;20056;-44
2023/07/17 04:15:31;;;;;;;4.75;1.42;;;;;;;12.63;70.62;99938.81;5024774;28;20053;-44
2023/07/17 04:17:58;;;;;;;5.03;1.73;;;;;;;12.64;71.34;99941.38;5028827;28;20056;-44
2023/07/17 04:20:24;;;;;;;9.40;2.08;;;;;;;12.66;70.81;99943.97;5029120;28;20053;-44
2023/07/17 04:22:51;;;;;;;8.13;2.28;;;;;;;12.70;71.55;99945.66;5029378;28;20417;-45
2023/07/17 04:25:18;;;;;;;6.57;1.80;;;;;;;12.72;71.53;99949.06;5029310;28;20085;-43
2023/07/17 04:27:45;;;;;;;7.25;2.10;;;;;;;12.75;71.58;99949.03;5027541;28;20045;-43
2023/07/17 04:30:11;;;;;;;9.52;2.60;;;;;;;12.78;71.73;99954.19;5029216;28;20057;-44
2023/07/17 04:32:38;;;;;;;5.30;1.63;;;;;;;12.79;72.32;99953.31;5025312;28;20065;-44
2023/07/17 04:35:06;;;;;;;5.68;2.20;;;;;;;12.83;71.53;99951.50;5028733;28;20063;-43
2023/07/17 04:37:33;;;;;;;7.60;1.77;;;;;;;12.85;71.62;99954.97;5029500;28;20038;-43
2023/07/17 04:39:59;;;;;;;6.32;1.52;;;;;;;12.87;72.37;99957.53;5028678;28;20144;-45
2023/07/17 04:42:26;;;;;;;7.22;1.55;;;;;;;12.90;71.18;99962.72;5028919;28;20046;-47
2023/07/17 04:44:53;;;;;;;5.13;2.10;;;;;;;12.91;72.25;99959.22;5029499;28;20053;-45
2023/07/17 04:47:20;;;;;;;4.22;1.67;;;;;;;12.94;71.60;99960.03;5026543;28;20045;-47
2023/07/17 04:49:47;;;;;;;5.90;1.50;;;;;;;12.96;72.42;99963.47;5025698;28;20080;-45
2023/07/17 04:52:13;;;;;;;6.72;3.20;;;;;;;13.01;72.01;99965.16;5029122;28;20664;-44
2023/07/17 04:54:40;;;;;;;7.65;1.70;;;;;;;13.04;71.64;99963.34;5028572;28;20045;-45
2023/07/17 04:57:07;;;;;;;6.25;1.63;;;;;;;13.08;71.93;99971.97;5029095;28;20063;-42
2023/07/17 04:59:34;;;;;;;6.75;1.63;;;;;;;13.12;71.39;99973.66;5023160;28;20064;-42
2023/07/17 05:02:00;;;;;;;8.10;2.13;;;;;;;13.15;72.16;99963.22;5027399;28;20050;-44
2023/07/17 05:04:27;;;;;;;11.35;3.22;;;;;;;13.21;72.87;99967.47;5028314;28;20071;-43
2023/07/17 05:06:54;;;;;;;9.27;2.15;;;;;;;13.28;72.60;99969.09;5026523;28;20067;-48
2023/07/17 05:09:21;;;;;;;7.07;2.72;;;;;;;13.35;72.26;99970.69;5028460;28;20065;-44
2023/07/17 05:11:48;;;;;;;4.75;1.77;;;;;;;13.43;72.87;99974.91;5028141;28;20497;-45
2023/07/17 05:14:14;;;;;;;8.63;2.05;;;;;;;13.52;72.50;99981.75;5028385;28;20453;-45
2023/07/17 05:16:41;;;;;;;4.25;1.80;;;;;;;13.61;72.72;99981.59;5028184;28;20080;-46
2023/07/17 05:19:08;;;;;;;6.45;1.73;;;;;;;13.71;72.59;99979.72;5028357;28;20068;-44
2023/07/17 05:21:34;;;;;;;7.07;1.85;;;;;;;13.80;72.35;99989.09;5024941;28;20045;-44
2023/07/17 05:24:01;;;;;;;5.43;1.80;;;;;;;13.86;72.71;99997.69;5027069;28;20073;-45
2023/07/17 05:26:28;;;;;;;6.75;1.90;;;;;;;13.94;72.69;100001.88;5025838;28;20042;-46
2023/07/17 05:28:55;;;;;;;6.47;1.90;;;;;;;14.04;72.43;100000.84;5026707;28;20041;-44
2023/07/17 05:31:21;;;;;;;9.15;3.10;;;;;;;14.13;72.21;99998.09;5022468;28;20387;-44
2023/07/17 05:33:50;;;;;;;7.07;1.85;;;;;;;14.22;72.57;99999.63;5022205;28;20049;-47
2023/07/17 05:36:17;;;;;;;4.60;2.05;;;;;;;14.29;71.78;100007.34;5027180;28;20568;-41
2023/07/17 05:38:43;;;;;;;7.68;2.08;;;;;;;14.30;72.28;100007.31;5020955;28;20049;-46
2023/07/17 05:41:10;;;;;;;7.32;3.95;;;;;;;14.33;71.81;100004.66;5027514;28;20622;-45
2023/07/17 05:43:37;;;;;;;6.45;3.40;;;;;;;14.40;71.69;100008.84;5028400;28;20359;-45
2023/07/17 05:46:03;;;;;;;9.57;2.45;;;;;;;14.53;72.22;100013.84;5024787;28;20528;-44
2023/07/17 05:48:30;;;;;;;5.40;1.70;;;;;;;14.63;71.84;100015.34;5022568;28;20054;-42
2023/07/17 05:50:57;;;;;;;10.85;2.63;;;;;;;14.76;72.51;100017.75;5026803;28;20053;-46
2023/07/17 05:53:24;;;;;;;5.97;2.25;;;;;;;14.83;71.63;100016.72;5025014;28;20049;-43
2023/07/17 05:55:52;;;;;;;6.22;1.63;;;;;;;14.89;72.03;100020.94;5026750;28;20138;-45
2023/07/17 05:58:19;;;;;;;5.68;1.90;;;;;;;14.95;71.92;100019.97;5025822;28;20088;-49
2023/07/17 06:00:45;;;;;;;5.60;1.55;;;;;;;15.01;71.08;100017.25;5027487;28;20418;-45
2023/07/17 06:03:12;;;;;;;9.27;2.10;;;;;;;15.03;71.43;100023.28;5025721;28;20049;-43
2023/07/17 06:05:39;;;;;;;6.05;1.73;;;;;;;15.07;71.43;100030.16;5021438;28;20041;-44
2023/07/17 06:08:08;;;;;;;6.03;1.60;;;;;;;15.11;70.68;100031.81;5025490;28;20131;-42
2023/07/17 06:10:36;;;;;;;4.18;2.05;;;;;;;15.18;71.23;100026.44;5027338;28;20049;-44
2023/07/17 06:13:03;;;;;;;5.68;1.85;;;;;;;15.26;71.15;100034.94;5027686;28;20054;-45
2023/07/17 06:15:30;;;;;;;5.72;2.47;;;;;;;15.34;71.68;100033.03;5027880;28;20048;-44
2023/07/17 06:17:56;;;;;;;3.95;1.70;;;;;;;15.46;71.52;100042.31;5027292;28;20545;-45
2023/07/17 06:20:23;;;;;;;5.32;1.45;;;;;;;15.57;71.43;100049.91;5027048;28;20053;-47
2023/07/17 06:22:50;;;;;;;4.72;2.00;;;;;;;15.64;71.24;100051.47;5026530;28;20483;-44
2023/07/17 06:25:17;;;;;;;5.65;1.55;;;;;;;15.72;70.62;100055.66;5024656;28;20052;-45
2023/07/17 06:27:44;;;;;;;7.00;1.90;;;;;;;15.77;70.81;100053.81;5017844;28;20046;-43
2023/07/17 06:30:11;;;;;;;15.35;2.20;;;;;;;15.82;70.17;100059.78;5027385;28;20132;-48
2023/07/17 06:32:37;;;;;;;8.68;2.05;;;;;;;15.85;70.20;100049.25;5025994;28;20490;-42
2023/07/17 06:35:06;;;;;;;4.97;1.45;;;;;;;15.90;70.58;100051.72;5027204;28;20619;-46
2023/07/17 06:37:32;;;;;;;5.22;1.65;;;;;;;15.93;69.87;100052.53;5025345;28;20050;-46
2023/07/17 06:39:59;;;;;;;7.80;1.40;;;;;;;16.00;70.17;100057.63;5023456;28;20064;-45
2023/07/17 06:42:26;;;;;;;4.53;1.67;;;;;;;16.06;71.00;100053.13;5026873;28;20049;-44
2023/07/17 06:44:53;;;;;;;5.85;1.80;;;;;;;16.21;70.54;100055.38;5027284;28;20055;-44
2023/07/17 06:47:20;;;;;;;5.78;2.30;;;;;;;16.39;70.52;100065.34;5026865;28;20045;-49
2023/07/17 06:50:03;;;;;;;5.45;1.70;;;;;;;16.62;70.32;100061.22;5021709;28;20053;-46
2023/07/17 06:52:30;;;;;;;5.32;2.13;;;;;;;16.89;70.50;100069.19;5024625;28;20046;-46
2023/07/17 06:54:57;;;;;;;4.03;1.73;;;;;;;17.14;70.57;100065.03;5026207;28;20554;-44
2023/07/17 06:57:31;;;;;;;3.75;1.42;;;;;;;17.41;70.58;100073.81;5022982;28;20045;-49
2023/07/17 06:59:57;;;;;;;3.78;1.40;;;;;;;17.70;69.26;100082.50;5026589;28;20559;-50
2023/07/17 07:02:24;;;;;;;4.93;1.52;;;;;;;17.95;69.22;100089.59;5026447;28;20052;-44
2023/07/17 07:04:51;;;;;;;5.35;1.95;;;;;;;18.20;68.87;100090.53;5024922;28;20049;-46
2023/07/17 07:07:18;;;;;;;6.25;1.80;;;;;;;18.40;68.76;100087.22;5026321;28;20056;-45
2023/07/17 07:09:45;;;;;;;4.80;1.65;;;;;;;18.61;68.21;100084.78;5025634;28;20056;-45
2023/07/17 07:12:13;;;;;;;4.47;1.50;;;;;;;18.82;67.96;100092.78;5025343;28;20136;-45
2023/07/17 07:14:40;;;;;;;7.15;1.27;;;;;;;19.09;67.13;100103.19;5026375;28;20064;-46
2023/07/17 07:17:08;;;;;;;4.53;1.63;;;;;;;19.35;66.67;100091.69;5026387;28;20134;-45
2023/07/17 07:19:34;;;;;;;5.93;1.83;;;;;;;19.60;66.11;100097.75;5025031;28;20123;-43
2023/07/17 07:22:01;;;;;;;3.05;1.65;;;;;;;19.76;65.16;100096.22;5026330;28;20049;-46
2023/07/17 07:24:28;;;;;;;4.82;1.88;;;;;;;19.94;65.07;100099.03;5024653;28;20095;-45
2023/07/17 07:26:55;;;;;;;4.70;1.58;;;;;;;20.11;64.52;100102.75;5026997;28;20120;-45
2023/07/17 07:29:21;;;;;;;4.45;1.83;;;;;;;20.31;64.10;100106.31;5023589;28;20041;-47
2023/07/17 07:31:48;;;;;;;5.85;1.88;;;;;;;20.52;63.21;100115.91;5023258;28;20501;-46
2023/07/17 07:34:15;;;;;;;5.00;1.52;;;;;;;20.70;62.96;100113.38;5024879;28;20099;-43
2023/07/17 07:36:42;;;;;;;5.10;2.10;;;;;;;20.83;62.38;100118.97;5022463;28;20148;-42
2023/07/17 07:39:08;;;;;;;5.22;1.58;;;;;;;20.96;61.79;100114.03;5025712;28;20045;-44
2023/07/17 07:41:36;;;;;;;6.75;1.90;;;;;;;21.14;61.48;100114.13;5025837;28;20046;-45
2023/07/17 07:44:03;;;;;;;7.00;2.90;;;;;;;21.32;61.42;100121.16;5024469;28;20801;-46
2023/07/17 07:46:29;;;;;;;4.68;1.48;;;;;;;21.47;59.92;100124.00;5026305;28;20041;-47
2023/07/17 07:48:56;;;;;;;4.40;2.08;;;;;;;21.58;60.12;100121.72;5022363;28;20076;-44
2023/07/17 07:51:23;;;;;;;4.85;1.77;;;;;;;21.68;59.58;100121.25;5027937;28;20057;-43
2023/07/17 07:53:50;;;;;;;4.40;1.60;;;;;;;21.86;59.20;100129.25;5029504;28;20037;-44
2023/07/17 07:56:17;;;;;;;5.32;1.48;;;;;;;22.07;58.98;100130.84;5030017;28;20072;-43
2023/07/17 07:58:45;;;;;;;6.25;1.50;;;;;;;22.33;58.76;100126.00;5029704;28;20045;-43
2023/07/17 08:01:11;;;;;;;4.20;1.70;;;;;;;22.53;58.28;100126.78;5029595;28;20125;-45
2023/07/17 08:03:40;;;;;;;4.80;2.42;;;;;;;22.70;57.65;100125.09;5028715;28;20049;-45
2023/07/17 08:06:07;;;;;;;5.78;2.35;;;;;;;22.85;57.28;100126.91;5030092;28;20072;-45
2023/07/17 08:08:34;;;;;;;3.40;1.80;;;;;;;22.90;56.65;100125.81;5029257;28;20049;-45
2023/07/17 08:11:01;;;;;;;5.45;1.75;;;;;;;23.05;56.40;100143.50;5029654;28;20049;-45
2023/07/17 08:13:28;;;;;;;6.25;2.38;;;;;;;23.11;56.24;100129.94;5023215;28;20050;-45
2023/07/17 08:15:56;;;;;;;4.57;1.85;;;;;;;23.30;55.71;100133.38;5028533;28;20049;-48
2023/07/17 08:18:23;;;;;;;4.65;2.78;;;;;;;23.44;55.23;100138.75;5028670;28;20585;-45
2023/07/17 08:20:50;;;;;;;4.07;1.67;;;;;;;23.52;55.01;100138.34;5027285;28;20049;-45
2023/07/17 08:23:25;;;;;;;6.20;2.67;;;;;;;23.36;54.25;100144.50;5028201;28;20857;-45
2023/07/17 08:25:52;;;;;;;5.25;2.35;;;;;;;23.30;54.04;100144.78;5028713;28;20037;-45
2023/07/17 08:28:19;;;;;;;6.07;2.53;;;;;;;23.21;53.82;100145.28;5029471;28;20135;-49
2023/07/17 08:30:46;;;;;;;3.45;1.63;;;;;;;23.28;54.11;100157.25;5028909;28;20049;-46
2023/07/17 08:33:13;;;;;;;6.32;1.88;;;;;;;23.41;54.24;100146.03;5029946;28;20045;-46
2023/07/17 08:35:40;;;;;;;5.63;1.95;;;;;;;23.64;54.89;100151.81;5028505;28;20107;-49
2023/07/17 08:38:06;;;;;;;3.33;1.20;;;;;;;23.88;53.85;100150.41;5029280;28;20136;-44
2023/07/17 08:40:38;;;;;;;4.90;1.70;;;;;;;24.18;54.06;100150.56;5028659;28;20057;-47
2023/07/17 08:43:06;;;;;;;7.22;2.22;;;;;;;24.15;52.54;100151.59;5029493;28;20061;-48
2023/07/17 08:45:35;;;;;;;6.25;1.90;;;;;;;24.28;53.03;100151.72;5028186;28;20041;-45
2023/07/17 08:48:04;;;;;;;5.80;2.05;;;;;;;24.52;52.40;100159.16;5027403;28;20053;-46
2023/07/17 08:50:30;;;;;;;4.15;2.03;;;;;;;24.65;51.34;100162.75;5029125;28;20128;-47
2023/07/17 08:52:57;;;;;;;2.60;1.33;;;;;;;24.78;51.15;100156.72;5027598;28;20053;-47
2023/07/17 08:55:29;;;;;;;4.18;1.48;;;;;;;24.76;50.92;100166.56;5029166;28;20053;-48
2023/07/17 08:58:00;;;;;;;4.25;1.88;;;;;;;24.75;50.81;100159.53;5028981;28;20505;-46
2023/07/17 09:00:28;;;;;;;8.05;2.22;;;;;;;24.80;50.95;100162.78;5023270;28;20041;-47
2023/07/17 09:02:55;;;;;;;4.28;2.13;;;;;;;24.88;50.92;100173.78;5026939;28;20049;-46
2023/07/17 09:05:22;;;;;;;5.00;2.05;;;;;;;25.00;50.45;100168.69;5027668;28;20077;-46
2023/07/17 09:07:49;;;;;;;5.30;1.88;;;;;;;25.12;50.37;100159.09;5028852;28;20056;-49
2023/07/17 09:10:20;;;;;;;4.47;1.75;;;;;;;25.28;50.72;100164.31;5028228;28;20497;-47
2023/07/17 09:12:55;;;;;;;8.15;1.95;;;;;;;25.50;50.39;100170.91;5028000;28;20050;-46
2023/07/17 09:15:23;;;;;;;5.07;1.60;;;;;;;25.64;50.18;100162.94;5028073;28;20057;-45
2023/07/17 09:17:50;;;;;;;3.90;1.65;;;;;;;25.74;50.03;100154.38;5022776;28;20049;-50
2023/07/17 09:20:19;;;;;;;5.25;2.22;;;;;;;25.95;49.83;100165.41;5028409;28;20057;-47
2023/07/17 09:22:47;;;;;;;7.00;1.60;;;;;;;26.23;49.99;100173.31;5058193;28;20057;-49
2023/07/17 09:25:15;;;;;;;5.07;2.50;;;;;;;26.40;49.51;100170.41;5019173;28;20424;-47
2023/07/17 09:27:51;;;;;;;5.60;2.08;;;;;;;26.47;47.78;100167.34;5028707;28;20072;-48
2023/07/17 09:30:19;;;;;;;3.90;1.92;;;;;;;26.58;47.90;100167.47;5020225;28;20041;-48
2023/07/17 09:32:47;;;;;;;;;;;;;;;26.61;48.58;100167.22;5022996;28;20874;-46
2023/07/17 09:35:14;;;;;;;4.95;1.52;;;;;;;26.67;48.06;100169.47;5026531;28;19925;-49
2023/07/17 09:37:43;;;;;;;3.40;1.70;;;;;;;26.75;47.31;100173.41;5025628;28;20519;-50
2023/07/17 09:40:16;;;;;;;4.63;1.50;;;;;;;26.79;47.98;100182.88;5024029;28;20065;-46
2023/07/17 09:42:44;;;;;;;5.05;2.13;;;;;;;26.84;46.68;100182.56;5024103;28;20041;-50
2023/07/17 09:45:11;;;;;;;2.67;1.15;;;;;;;26.69;46.75;100180.84;5028431;28;20045;-48
2023/07/17 09:47:39;;;;;;;5.53;1.55;;;;;;;26.60;46.97;100181.47;5027918;28;20128;-47
2023/07/17 09:50:08;;;;;;;4.97;1.30;;;;;;;26.74;47.77;100187.66;5025850;28;20072;-47
2023/07/17 09:52:34;;;;;;;4.75;1.58;;;;;;;26.79;46.97;100180.22;5026707;28;20059;-48
2023/07/17 09:55:01;;;;;;;4.05;1.52;;;;;;;26.66;46.34;100186.38;5024466;28;20056;-48
2023/07/17 09:57:31;;;;;;;2.97;1.50;;;;;;;26.54;45.85;100181.88;5027944;28;20687;-49
2023/07/17 10:00:03;;;;;;;4.10;1.05;;;;;;;26.60;45.62;100170.84;5028262;28;20042;-48
2023/07/17 10:02:36;;;;;;;3.53;1.20;;;;;;;26.78;46.06;100178.53;5027603;28;20061;-47
2023/07/17 10:05:05;;;;;;;4.05;1.13;;;;;;;26.97;46.32;100177.25;5024579;28;20045;-48
2023/07/17 10:07:36;;;;;;;3.72;2.50;;;;;;;27.04;45.53;100178.50;5028008;28;20558;-47
2023/07/17 10:10:04;;;;;;;3.33;1.08;;;;;;;27.10;45.86;100177.22;5022998;28;20053;-46
2023/07/17 10:12:34;;;;;;;4.40;1.15;;;;;;;27.11;45.25;100184.28;5057311;28;20045;-49
2023/07/17 10:15:03;;;;;;;3.58;1.50;;;;;;;27.06;43.44;100168.63;5026980;28;20041;-51
2023/07/17 10:17:32;;;;;;;2.42;0.82;;;;;;;26.85;43.21;100185.06;5026712;28;20051;-44
2023/07/17 10:20:00;;;;;;;;;;;;;;;26.47;43.71;100167.34;5025633;28;20616;-47
2023/07/17 10:22:33;;;;;;;3.85;1.42;;;;;;;26.67;45.23;100174.78;5059057;28;19936;-45
2023/07/17 10:30:35;;;;;;;4.30;2.70;;;;;;;27.09;41.79;100173.75;5056992;28;20445;-48
2023/07/17 10:38:27;;;;;;;3.42;1.35;;;;;;;26.86;44.09;100180.63;5020329;27;20942;-48
2023/07/17 10:41:05;;;;;;;3.08;1.38;;;;;;;26.94;43.86;100189.78;4995359;28;20050;-49
2023/07/17 10:43:34;;;;;;;3.17;1.23;;;;;;;27.03;43.04;100188.31;4985066;28;20050;-49
2023/07/17 10:46:07;;;;;;;4.00;1.10;;;;;;;27.04;42.48;100189.16;4987180;28;20542;-49
2023/07/17 10:48:35;;;;;;;5.90;1.75;;;;;;;26.99;42.87;100191.28;4993262;28;20054;-48
2023/07/17 10:51:02;;;;;;;4.10;0.63;;;;;;;26.87;42.86;100188.50;4994219;28;20054;-48
2023/07/17 10:53:29;;;;;;;5.63;1.55;;;;;;;26.81;42.26;100197.75;4979165;28;20046;-46
2023/07/17 10:55:56;;;;;;;2.30;1.58;;;;;;;26.83;42.68;100197.63;4987725;28;20058;-48
2023/07/17 10:58:23;;;;;;;2.08;0.63;;;;;;;27.01;44.42;100194.66;4998136;28;20043;-51
2023/07/17 11:00:51;;;;;;;3.58;0.70;;;;;;;27.04;42.53;100211.28;4995117;28;20057;-48
2023/07/17 11:03:22;;;;;;;2.40;0.90;;;;;;;26.90;42.56;100209.53;4989660;28;20089;-54
2023/07/17 11:05:54;;;;;;;1.90;0.95;;;;;;;26.90;43.03;100198.91;4992959;28;20051;-43
2023/07/17 11:08:20;;;;;;;3.17;0.80;;;;;;;26.94;42.63;100199.53;4985441;28;20546;-48
2023/07/17 11:10:47;;;;;;;3.00;1.13;;;;;;;26.92;42.99;100201.47;4994658;28;20043;-49
2023/07/17 11:13:14;;;;;;;4.47;1.55;;;;;;;26.94;43.67;100211.03;4993587;28;20054;-51
2023/07/17 11:15:43;;;;;;;1.85;0.70;;;;;;;27.10;42.56;100210.00;4984570;28;20384;-48
2023/07/17 11:18:10;;;;;;;1.85;0.60;;;;;;;27.18;42.95;100218.28;4985425;28;20051;-46
2023/07/17 11:20:37;;;;;;;3.97;0.80;;;;;;;27.00;42.68;100224.88;4994154;28;20048;-48
2023/07/17 11:23:08;;;;;;;2.78;1.13;;;;;;;26.74;43.44;100225.69;4992211;28;20050;-50
2023/07/17 11:25:35;;;;;;;4.60;1.17;;;;;;;26.38;44.58;100225.41;4992946;28;20066;-47
2023/07/17 11:28:02;;;;;;;2.28;0.68;;;;;;;26.14;45.67;100220.75;4981140;28;20058;-48
2023/07/17 11:30:32;;;;;;;3.17;1.13;;;;;;;26.07;46.98;100230.06;4993532;28;20482;-49
2023/07/17 11:35:50;;;;;;;7.53;2.42;;;;;;;26.23;47.98;100221.09;5016161;27;20407;-45
2023/07/17 11:38:19;;;;;;;3.47;2.45;;;;;;;26.33;47.88;100227.53;5011259;28;20045;-45
2023/07/17 11:43:35;;;;;;;2.10;0.80;;;;;;;26.53;47.98;100218.22;5044400;28;20394;-46
2023/07/17 11:46:05;;;;;;;2.15;0.77;;;;;;;26.67;47.49;100225.25;5022485;28;20067;-47